»·PEaware :: JZA691 CYSB-CYYZ

JZA691 :: CYSB-CYYZ

FLIGHT INFORMATION

Flight Status: Arrived
Operator:
Air Canada Jazz
More flights by this operator :: More flights under this callsign
Pilot: Thomas N. (7419)
Aircraft: SAAB 340
(SF34)
More flights by this aircraft type
Origin: CYSB Sudbury
Canada
Destination: CYYZ Toronto/Pearson Intl
Canada
More flights between these airports :: More routes between these airports
Route: IRKIM NAKAL2
File this flight plan on PilotEdge
Remarks:
Altitude:
(Current/Filed)
19,000ft
Speed:
(Current/Filed)
230kts
Departed: 02-Nov-15 08:58 AM
Arrived: 02-Nov-15 10:05 AM
Distance/Time
Traveled:
183nm/1:07
Distance/Time
To Go:
Arrived

Flight Plot

Page will automatically refresh every two minutes.


Map Options




Map Legend


Flown Route
Filed Route
Departure Airport
Arrival Airport
Navaid (VOR, NDB)
Fix

Horizontal Profiles

Position Reports

Time Latitude Longitude Heading Altitude Ground
Speed
02-Nov-15 08:55 46.746122 -80.704385 28 3954ft 212kts
02-Nov-15 08:56 46.793753 -80.649390 89 4357ft 224kts
02-Nov-15 08:57 46.749299 -80.626020 200 5616ft 208kts
02-Nov-15 08:58 46.695769 -80.655273 200 6794ft 207kts
02-Nov-15 08:59 46.642145 -80.684548 200 7983ft 204kts
02-Nov-15 09:00 46.598660 -80.708229 200 8961ft 196kts
02-Nov-15 09:01 46.549062 -80.735187 200 10132ft 185kts
02-Nov-15 09:02 46.500893 -80.755767 185 11307ft 178kts
02-Nov-15 09:03 46.451932 -80.752485 174 12486ft 174kts
02-Nov-15 09:04 46.404798 -80.742655 172 13679ft 170kts
02-Nov-15 09:05 46.359131 -80.731895 172 14869ft 165kts
02-Nov-15 09:06 46.315223 -80.721314 172 16047ft 160kts
02-Nov-15 09:07 46.272287 -80.710928 173 17237ft 153kts
02-Nov-15 09:08 46.230015 -80.700733 173 18450ft 161kts
02-Nov-15 09:09 46.181708 -80.689165 173 18982ft 200kts
02-Nov-15 09:10 46.122592 -80.674933 173 18973ft 227kts
02-Nov-15 09:11 46.058784 -80.659619 173 18971ft 235kts
02-Nov-15 09:12 45.994080 -80.644164 172 18970ft 236kts
02-Nov-15 09:13 45.929579 -80.628767 171 18969ft 234kts
02-Nov-15 09:14 45.872766 -80.615168 171 18969ft 233kts
02-Nov-15 09:15 45.808523 -80.599871 171 18969ft 233kts
02-Nov-15 09:16 45.744453 -80.584667 171 18969ft 233kts
02-Nov-15 09:17 45.680529 -80.569533 172 18974ft 234kts
02-Nov-15 09:18 45.616063 -80.554301 172 18979ft 235kts
02-Nov-15 09:19 45.551638 -80.539150 171 18982ft 235kts
02-Nov-15 09:20 45.487122 -80.523994 171 18984ft 235kts
02-Nov-15 09:21 45.422699 -80.508876 170 18991ft 235kts
02-Nov-15 09:22 45.365611 -80.495492 170 18991ft 236kts
02-Nov-15 09:23 45.300915 -80.480376 170 18991ft 236kts
02-Nov-15 09:24 45.236128 -80.465297 170 18990ft 236kts
02-Nov-15 09:25 45.171133 -80.450199 169 18990ft 237kts
02-Nov-15 09:26 45.105819 -80.435041 168 18990ft 238kts
02-Nov-15 09:27 45.040565 -80.419892 169 18990ft 238kts
02-Nov-15 09:28 44.975259 -80.404804 170 18989ft 237kts
02-Nov-15 09:29 44.910385 -80.389909 169 18990ft 237kts
02-Nov-15 09:30 44.845288 -80.374956 169 18992ft 238kts
02-Nov-15 09:31 44.781278 -80.350693 161 18994ft 239kts
02-Nov-15 09:32 44.717762 -80.323761 161 18998ft 242kts
02-Nov-15 09:33 44.652876 -80.296470 161 19001ft 244kts
02-Nov-15 09:34 44.587511 -80.269050 162 18823ft 252kts
02-Nov-15 09:35 44.523032 -80.242017 163 17603ft 233kts
02-Nov-15 09:36 44.460355 -80.215960 163 16392ft 236kts
02-Nov-15 09:37 44.394813 -80.188669 163 15229ft 260kts
02-Nov-15 09:38 44.324226 -80.159357 163 14045ft 268kts
02-Nov-15 09:39 44.253086 -80.129925 163 12840ft 261kts
02-Nov-15 09:40 44.184730 -80.101638 163 11633ft 254kts
02-Nov-15 09:41 44.117063 -80.073766 163 10340ft 257kts
02-Nov-15 09:42 44.050654 -80.037838 139 8936ft 258kts
02-Nov-15 09:43 43.995588 -79.976301 142 8037ft 242kts
02-Nov-15 09:44 43.940694 -79.919465 143 7006ft 250kts
02-Nov-15 09:45 43.885806 -79.862548 143 5912ft 241kts
02-Nov-15 09:46 43.834244 -79.809368 143 4998ft 224kts
02-Nov-15 09:47 43.784600 -79.758353 143 4538ft 219kts
02-Nov-15 09:48 43.735452 -79.718326 179 4544ft 201kts
02-Nov-15 09:49 43.677656 -79.722690 180 4545ft 224kts
02-Nov-15 09:50 43.613792 -79.720227 159 4530ft 234kts
02-Nov-15 09:51 43.568092 -79.657483 136 4539ft 230kts
02-Nov-15 09:52 43.524778 -79.600756 136 4540ft 205kts
02-Nov-15 09:53 43.484223 -79.548030 136 4023ft 196kts
02-Nov-15 09:54 43.447064 -79.499815 137 3068ft 164kts
02-Nov-15 09:55 43.439331 -79.456987 51 3084ft 141kts
02-Nov-15 09:56 43.469801 -79.412819 41 3049ft 164kts
02-Nov-15 09:57 43.501392 -79.437187 302 3050ft 156kts
02-Nov-15 09:58 43.540079 -79.465334 329 2925ft 159kts
02-Nov-15 09:59 43.573064 -79.505789 317 2385ft 157kts
02-Nov-15 10:00 43.604244 -79.546359 316 1964ft 161kts
02-Nov-15 10:01 43.634888 -79.585821 318 1554ft 136kts
02-Nov-15 10:02 43.661543 -79.620885 317 810ft 127kts
02-Nov-15 10:03 43.676587 -79.640332 316 572ft 24kts
02-Nov-15 10:04 43.680864 -79.643634 22 572ft 15kts
02-Nov-15 10:05 43.683972 -79.639115 45 572ft 22kts
02-Nov-15 10:06 43.687781 -79.632928 133 572ft 15kts
02-Nov-15 10:07 43.684691 -79.626645 47 572ft 17kts
02-Nov-15 10:08 43.687125 -79.623678 33 572ft 7kts
02-Nov-15 10:09 43.687628 -79.622544 181 572ft 0kts
02-Nov-15 10:10 43.687628 -79.622544 181 572ft 0kts
02-Nov-15 10:11 43.687628 -79.622544 181 572ft 0kts
02-Nov-15 10:12 43.687628 -79.622544 181 572ft 0kts

Navigation Log

Ident Type
Flight plan parsing failed, navigation log unavailable